Time;durP1;ratioP1;P1;durP2;ratioP2;P2;SDS_P1;SDS_P2;PMS_P1;PMS_P2;Temp;Humidity;BMP_temperature;BMP_pressure;BME280_temperature;BME280_humidity;BME280_pressure;Samples;Min_cycle;Max_cycle;Signal;HPM_P1;HPM_P2
2022/07/26 00:00:12;;;;;;;0.05;0.05;;;;;;;18.11;56.61;101512.06;7354518;19;20043;-65
2022/07/26 00:02:41;;;;;;;0.10;0.10;;;;;;;18.12;56.34;101526.97;7346394;19;21349;-65
2022/07/26 00:05:07;;;;;;;0.10;0.10;;;;;;;18.09;57.28;101519.16;7356395;19;20035;-65
2022/07/26 00:07:33;;;;;;;0.10;0.10;;;;;;;18.07;56.73;101526.31;7357568;19;20022;-65
2022/07/26 00:09:58;;;;;;;0.00;0.00;;;;;;;18.04;56.98;101522.00;7363756;19;20011;-66
2022/07/26 00:12:23;;;;;;;0.08;0.08;;;;;;;18.03;56.55;101524.72;7361873;19;20013;-65
2022/07/26 00:14:49;;;;;;;0.00;0.00;;;;;;;18.00;56.42;101530.13;7362579;19;20007;-65
2022/07/26 00:17:15;;;;;;;0.10;0.10;;;;;;;17.87;56.32;101506.84;7365716;19;20731;-65
2022/07/26 00:19:40;;;;;;;0.00;0.00;;;;;;;17.93;56.56;101518.06;7362543;19;20007;-65
2022/07/26 00:24:50;;;;;;;0.00;0.00;;;;;;;17.86;56.96;101513.03;7365217;19;20019;-65
2022/07/26 00:27:15;;;;;;;0.10;0.10;;;;;;;17.84;56.25;101517.53;7363710;19;20014;-64
2022/07/26 00:29:40;;;;;;;0.00;0.00;;;;;;;17.83;56.55;101512.28;7364745;19;20544;-65
2022/07/26 00:32:06;;;;;;;0.00;0.00;;;;;;;17.83;56.40;101515.78;7361601;19;20592;-65
2022/07/26 00:34:31;;;;;;;0.00;0.00;;;;;;;17.81;56.50;101517.66;7364413;19;20086;-65
2022/07/26 00:36:57;;;;;;;0.00;0.00;;;;;;;17.78;56.14;101520.41;7364640;19;20007;-64
2022/07/26 00:39:23;;;;;;;0.05;0.05;;;;;;;17.77;56.46;101513.41;7362388;19;20015;-65
2022/07/26 00:41:49;;;;;;;0.00;0.00;;;;;;;17.73;56.28;101517.09;7363584;19;20086;-65
2022/07/26 00:44:14;;;;;;;0.10;0.10;;;;;;;17.72;56.43;101510.06;7364018;19;20021;-65
2022/07/26 00:46:43;;;;;;;0.00;0.00;;;;;;;17.72;56.55;101514.47;7362879;19;20027;-65
2022/07/26 00:49:09;;;;;;;0.00;0.00;;;;;;;17.61;56.02;101501.69;7363775;19;20018;-64
2022/07/26 00:51:35;;;;;;;0.00;0.00;;;;;;;17.61;56.19;101502.56;7362390;19;20051;-64
2022/07/26 00:54:02;;;;;;;0.00;0.00;;;;;;;17.52;56.01;101499.41;7362326;19;20018;-65
2022/07/26 00:56:28;;;;;;;0.00;0.00;;;;;;;17.52;55.58;101508.19;7363500;19;20022;-64
2022/07/26 00:58:53;;;;;;;0.00;0.00;;;;;;;17.53;56.22;101520.47;7362008;19;20137;-65
2022/07/26 01:01:19;;;;;;;0.00;0.00;;;;;;;17.44;56.30;101509.44;7362420;19;20018;-65
2022/07/26 01:03:44;;;;;;;0.10;0.10;;;;;;;17.46;56.17;101521.63;7363019;19;19999;-65
2022/07/26 01:06:10;;;;;;;0.00;0.00;;;;;;;17.43;56.66;101524.38;7360775;19;20038;-64
2022/07/26 01:08:36;;;;;;;0.00;0.00;;;;;;;17.40;57.05;101539.50;7362828;19;20010;-65
2022/07/26 01:11:01;;;;;;;0.00;0.00;;;;;;;17.36;56.68;101534.31;7362358;19;20072;-64
2022/07/26 01:13:27;;;;;;;0.00;0.00;;;;;;;17.35;57.16;101537.88;7362403;19;20355;-66
2022/07/26 01:15:52;;;;;;;0.00;0.00;;;;;;;17.35;57.14;101537.88;7360923;19;20021;-65
2022/07/26 01:18:18;;;;;;;0.10;0.10;;;;;;;17.26;57.58;101527.66;7360204;19;20127;-65
2022/07/26 01:20:44;;;;;;;0.00;0.00;;;;;;;17.33;57.78;101536.22;7360622;19;20044;-64
2022/07/26 01:23:10;;;;;;;0.10;0.10;;;;;;;17.34;57.82;101541.44;7362812;19;20010;-65
2022/07/26 01:25:38;;;;;;;0.10;0.10;;;;;;;17.34;57.39;101538.81;7359767;19;20010;-65
2022/07/26 01:28:04;;;;;;;0.00;0.00;;;;;;;17.24;57.69;101534.78;7363198;19;20734;-65
2022/07/26 01:30:29;;;;;;;0.10;0.10;;;;;;;17.33;57.59;101541.50;7362006;19;20009;-65
2022/07/26 01:32:55;;;;;;;0.00;0.00;;;;;;;17.32;58.10;101548.56;7361699;19;20011;-65
2022/07/26 01:35:21;;;;;;;0.00;0.00;;;;;;;17.31;57.32;101557.41;7360761;19;20013;-64
2022/07/26 01:37:46;;;;;;;0.10;0.10;;;;;;;17.30;57.39;101549.53;7364364;19;20016;-65
2022/07/26 01:40:13;;;;;;;0.00;0.00;;;;;;;17.27;57.39;101550.50;7361417;19;20003;-65
2022/07/26 01:42:39;;;;;;;0.00;0.00;;;;;;;17.27;57.46;101555.78;7362301;19;20002;-64
2022/07/26 01:45:07;;;;;;;0.10;0.10;;;;;;;17.23;57.62;101551.53;7361245;19;20062;-65
2022/07/26 01:47:33;;;;;;;0.00;0.00;;;;;;;17.22;58.50;101552.44;7358390;19;20555;-65
2022/07/26 01:49:58;;;;;;;0.00;0.00;;;;;;;17.20;57.73;101554.28;7362179;19;20048;-65
2022/07/26 01:52:25;;;;;;;0.00;0.00;;;;;;;17.12;57.62;101543.16;7360462;19;20358;-65
2022/07/26 01:54:50;;;;;;;0.00;0.00;;;;;;;17.18;57.44;101545.56;7362803;19;20331;-64
2022/07/26 01:57:16;;;;;;;0.00;0.00;;;;;;;17.17;57.30;101543.84;7360497;19;20020;-65
2022/07/26 01:59:41;;;;;;;0.00;0.00;;;;;;;17.11;57.96;101538.78;7349354;19;20017;-65
2022/07/26 02:02:07;;;;;;;0.10;0.10;;;;;;;17.12;57.71;101551.91;7362945;19;20113;-64
2022/07/26 02:07:16;;;;;;;0.00;0.00;;;;;;;17.04;57.73;101542.59;7360355;19;20122;-65
2022/07/26 02:09:41;;;;;;;0.00;0.00;;;;;;;17.05;58.40;101542.50;7362206;19;20010;-65
2022/07/26 02:12:07;;;;;;;0.00;0.00;;;;;;;17.04;58.61;101545.22;7361978;19;20098;-65
2022/07/26 02:14:32;;;;;;;0.03;0.03;;;;;;;17.02;58.40;101544.41;7363563;19;20014;-64
2022/07/26 02:16:58;;;;;;;0.00;0.00;;;;;;;17.03;58.60;101548.75;7358451;19;20010;-66
2022/07/26 02:19:26;;;;;;;0.00;0.00;;;;;;;17.01;58.68;101548.81;7363753;19;20391;-65
2022/07/26 02:21:51;;;;;;;0.00;0.00;;;;;;;17.01;59.11;101547.97;7360192;19;20018;-66
2022/07/26 02:24:17;;;;;;;0.00;0.00;;;;;;;17.00;58.89;101547.09;7364026;19;20026;-65
2022/07/26 02:26:42;;;;;;;0.00;0.00;;;;;;;16.99;58.94;101540.09;7362512;19;20383;-66
2022/07/26 02:29:08;;;;;;;0.00;0.00;;;;;;;16.98;58.62;101532.22;7363959;19;20368;-65
2022/07/26 02:31:33;;;;;;;0.05;0.05;;;;;;;16.98;59.16;101542.78;7362798;19;20011;-65
2022/07/26 02:33:59;;;;;;;0.00;0.00;;;;;;;16.92;59.42;101532.44;7360484;19;20477;-65
2022/07/26 02:36:24;;;;;;;0.10;0.10;;;;;;;16.96;59.25;101539.34;7356122;19;20022;-64
2022/07/26 02:38:49;;;;;;;0.03;0.03;;;;;;;16.96;59.07;101544.63;7360920;19;20014;-65
2022/07/26 02:41:15;;;;;;;0.00;0.00;;;;;;;16.95;59.55;101538.50;7360504;19;20010;-65
2022/07/26 02:43:40;;;;;;;0.00;0.00;;;;;;;16.96;59.77;101544.63;7362110;19;20372;-65
2022/07/26 02:46:06;;;;;;;0.00;0.00;;;;;;;16.98;59.29;101550.69;7361027;19;20054;-65
2022/07/26 02:48:31;;;;;;;0.10;0.10;;;;;;;16.97;59.58;101548.97;7361177;19;20124;-65
2022/07/26 02:50:56;;;;;;;0.00;0.00;;;;;;;16.98;59.73;101548.06;7359126;19;20010;-65
2022/07/26 02:53:22;;;;;;;0.00;0.00;;;;;;;16.85;59.63;101524.75;7363137;19;20455;-65
2022/07/26 02:55:47;;;;;;;0.00;0.00;;;;;;;16.98;59.57;101543.66;7361586;19;20046;-65
2022/07/26 02:58:13;;;;;;;0.00;0.00;;;;;;;16.98;60.06;101545.41;7360749;19;20006;-65
2022/07/26 03:00:38;;;;;;;0.00;0.00;;;;;;;16.92;58.92;101532.44;7360503;19;20006;-64
2022/07/26 03:03:03;;;;;;;0.00;0.00;;;;;;;16.96;59.64;101544.63;7362133;19;20557;-65
2022/07/26 03:05:29;;;;;;;0.03;0.03;;;;;;;16.87;59.83;101529.97;7348757;19;20029;-65
2022/07/26 03:07:54;;;;;;;0.00;0.00;;;;;;;16.93;60.18;101539.44;7359649;19;20006;-65
2022/07/26 03:10:20;;;;;;;0.00;0.00;;;;;;;16.94;59.80;101546.47;7361568;19;20454;-65
2022/07/26 03:12:45;;;;;;;0.00;0.00;;;;;;;16.93;59.78;101550.88;7361990;19;20006;-64
2022/07/26 03:15:11;;;;;;;0.10;0.10;;;;;;;16.93;59.73;101550.88;7364025;19;20038;-65
2022/07/26 03:17:37;;;;;;;0.08;0.08;;;;;;;16.93;59.67;101550.00;7361372;19;20005;-65
2022/07/26 03:20:04;;;;;;;0.00;0.00;;;;;;;16.92;59.77;101550.91;7349746;19;20010;-66
2022/07/26 03:22:29;;;;;;;0.10;0.10;;;;;;;16.78;60.00;101536.47;7364242;19;20013;-65
2022/07/26 03:24:55;;;;;;;0.00;0.00;;;;;;;16.90;59.86;101545.69;7370078;19;20830;-65
2022/07/26 03:27:20;;;;;;;0.00;0.00;;;;;;;16.89;60.12;101549.25;7367160;19;21924;-66
2022/07/26 03:29:45;;;;;;;0.00;0.00;;;;;;;16.89;60.18;101551.03;7368039;19;20022;-65
2022/07/26 03:32:11;;;;;;;0.00;0.00;;;;;;;16.79;60.64;101537.31;7369405;19;20056;-65
2022/07/26 03:34:36;;;;;;;0.00;0.00;;;;;;;16.76;59.78;101535.63;7369746;19;20043;-64
2022/07/26 03:37:02;;;;;;;0.00;0.00;;;;;;;16.89;59.50;101551.03;7364000;19;20010;-65
2022/07/26 03:39:27;;;;;;;0.00;0.00;;;;;;;16.80;59.98;101539.03;7368328;19;20025;-65
2022/07/26 03:41:53;;;;;;;0.00;0.00;;;;;;;16.62;59.93;101511.47;7366739;19;20006;-65
2022/07/26 03:44:18;;;;;;;0.00;0.00;;;;;;;16.85;59.78;101553.78;7369469;19;20074;-65
2022/07/26 03:46:44;;;;;;;0.00;0.00;;;;;;;16.77;59.65;101547.91;7368620;19;20055;-65
2022/07/26 03:49:09;;;;;;;0.00;0.00;;;;;;;16.83;59.89;101554.75;7364772;19;20010;-65
2022/07/26 03:51:35;;;;;;;0.00;0.00;;;;;;;16.80;59.80;101550.44;7367769;19;20015;-65
2022/07/26 03:54:00;;;;;;;0.00;0.00;;;;;;;16.80;60.09;101558.34;7369341;19;20094;-65
2022/07/26 03:56:30;;;;;;;0.00;0.00;;;;;;;16.75;60.03;101552.38;7364524;19;20028;-65
2022/07/26 03:59:01;;;;;;;0.05;0.05;;;;;;;16.80;59.86;101553.06;7364694;19;20021;-65
2022/07/26 04:01:27;;;;;;;0.00;0.00;;;;;;;16.78;60.67;101552.28;7365360;19;20007;-65
2022/07/26 04:03:52;;;;;;;0.00;0.00;;;;;;;16.74;60.63;101547.16;7369010;19;20039;-65
2022/07/26 04:06:18;;;;;;;0.00;0.00;;;;;;;16.76;60.55;101564.66;7364843;19;20687;-65
2022/07/26 04:08:43;;;;;;;0.00;0.00;;;;;;;16.76;60.64;101569.91;7368546;19;20014;-65
2022/07/26 04:11:09;;;;;;;0.00;0.00;;;;;;;16.71;60.29;101558.66;7367081;19;20462;-65
2022/07/26 04:13:35;;;;;;;0.05;0.05;;;;;;;16.74;60.48;101566.47;7368123;19;20007;-65
2022/07/26 04:16:01;;;;;;;0.00;0.00;;;;;;;16.73;60.73;101570.03;7370033;19;20006;-65
2022/07/26 04:18:27;;;;;;;0.03;0.03;;;;;;;16.72;60.87;101568.28;7368079;19;20006;-65
2022/07/26 04:20:52;;;;;;;0.00;0.00;;;;;;;16.70;60.06;101570.09;7366318;19;21585;-65
2022/07/26 04:23:18;;;;;;;0.05;0.05;;;;;;;16.70;59.62;101570.09;7367124;19;20007;-65
2022/07/26 04:25:43;;;;;;;0.00;0.00;;;;;;;16.67;60.08;101574.63;7364679;19;20015;-65
2022/07/26 04:28:10;;;;;;;0.00;0.00;;;;;;;16.65;60.16;101571.19;7368607;19;20018;-65
2022/07/26 04:30:36;;;;;;;0.10;0.10;;;;;;;16.62;59.83;101577.41;7367173;19;20018;-65
2022/07/26 04:33:01;;;;;;;0.00;0.00;;;;;;;16.29;60.24;101522.28;7365827;19;20021;-65
2022/07/26 04:35:27;;;;;;;0.00;0.00;;;;;;;16.58;59.99;101578.44;7364557;19;20027;-65
2022/07/26 04:37:52;;;;;;;0.00;0.00;;;;;;;16.55;60.03;101570.63;7367799;19;20007;-65
2022/07/26 04:40:20;;;;;;;0.10;0.10;;;;;;;16.53;60.70;101573.31;7365574;19;20327;-65
2022/07/26 04:42:46;;;;;;;0.00;0.00;;;;;;;16.51;60.08;101569.00;7366978;19;20013;-65
2022/07/26 04:45:12;;;;;;;0.00;0.00;;;;;;;16.39;60.63;101553.59;7365342;19;20010;-65
2022/07/26 04:47:46;;;;;;;0.00;0.00;;;;;;;16.49;60.21;101571.69;7366707;19;20078;-65
2022/07/26 04:50:12;;;;;;;0.00;0.00;;;;;;;16.44;60.20;101572.75;7363887;19;20010;-65
2022/07/26 04:52:38;;;;;;;0.00;0.00;;;;;;;16.42;60.76;101569.28;7369247;19;22527;-65
2022/07/26 04:55:08;;;;;;;0.00;0.00;;;;;;;16.40;61.05;101582.53;7365987;19;20017;-65
2022/07/26 04:57:33;;;;;;;0.10;0.10;;;;;;;16.38;60.71;101579.09;7367313;19;20522;-65
2022/07/26 04:59:59;;;;;;;0.00;0.00;;;;;;;16.38;60.02;101580.88;7365530;19;20014;-65
2022/07/26 05:02:24;;;;;;;0.00;0.00;;;;;;;16.36;60.49;101575.63;7366142;19;20010;-64
2022/07/26 05:04:50;;;;;;;0.00;0.00;;;;;;;16.23;60.57;101567.28;7367502;19;20029;-65
2022/07/26 05:07:15;;;;;;;0.00;0.00;;;;;;;16.31;60.48;101578.41;7365435;19;20358;-65
2022/07/26 05:09:41;;;;;;;0.00;0.00;;;;;;;16.30;61.24;101576.69;7366058;19;20018;-65
2022/07/26 05:12:06;;;;;;;0.00;0.00;;;;;;;16.27;60.63;101582.09;7365469;19;20007;-65
2022/07/26 05:14:32;;;;;;;0.00;0.00;;;;;;;16.29;60.06;101582.91;7367412;19;20589;-65
2022/07/26 05:16:57;;;;;;;0.00;0.00;;;;;;;16.27;60.92;101575.94;7365367;19;20006;-65
2022/07/26 05:19:23;;;;;;;0.00;0.00;;;;;;;16.27;60.72;101581.19;7363372;19;20007;-65
2022/07/26 05:21:48;;;;;;;0.10;0.10;;;;;;;16.17;60.65;101575.41;7363032;19;20029;-64
2022/07/26 05:24:14;;;;;;;0.00;0.00;;;;;;;16.26;61.09;101590.88;7365484;19;20024;-65
2022/07/26 05:26:39;;;;;;;0.10;0.10;;;;;;;16.24;60.76;101595.34;7363664;19;20042;-65
2022/07/26 05:29:04;;;;;;;0.00;0.00;;;;;;;16.23;61.07;101580.47;7365196;19;20566;-65
2022/07/26 05:31:30;;;;;;;0.00;0.00;;;;;;;16.25;61.20;101585.66;7365743;19;20023;-65
2022/07/26 05:33:55;;;;;;;0.00;0.00;;;;;;;16.25;60.59;101578.63;7363306;19;20457;-66
2022/07/26 05:36:21;;;;;;;0.00;0.00;;;;;;;16.20;60.77;101580.53;7365890;19;20027;-65
2022/07/26 05:38:46;;;;;;;0.00;0.00;;;;;;;16.27;60.74;101578.56;7364167;19;20028;-66
2022/07/26 05:41:11;;;;;;;0.00;0.00;;;;;;;16.28;60.42;101591.72;7363580;19;20525;-65
2022/07/26 05:43:37;;;;;;;0.00;0.00;;;;;;;16.28;60.43;101582.94;7365273;19;20708;-65
2022/07/26 05:46:02;;;;;;;0.10;0.10;;;;;;;16.29;60.31;101585.53;7362109;19;20010;-64
2022/07/26 05:48:28;;;;;;;0.00;0.00;;;;;;;16.29;60.65;101601.34;7362322;19;20018;-65
2022/07/26 05:50:53;;;;;;;0.00;0.00;;;;;;;16.30;61.10;101600.41;7365456;19;20572;-64
2022/07/26 05:53:19;;;;;;;0.10;0.10;;;;;;;16.31;60.64;101599.50;7364168;19;21686;-65
2022/07/26 05:55:44;;;;;;;0.00;0.00;;;;;;;16.33;60.88;101605.63;7364762;19;20015;-65
2022/07/26 05:58:09;;;;;;;0.10;0.10;;;;;;;16.37;60.71;101603.72;7353979;19;20814;-64
2022/07/26 06:00:35;;;;;;;0.00;0.00;;;;;;;16.40;60.94;101613.31;7364517;19;20354;-65
2022/07/26 06:03:20;;;;;;;0.08;0.08;;;;;;;16.33;60.87;101592.44;7361572;19;20019;-65
2022/07/26 06:05:50;;;;;;;0.10;0.10;;;;;;;16.45;60.89;101606.13;7361279;19;20762;-64
2022/07/26 06:08:16;;;;;;;0.00;0.00;;;;;;;16.47;61.08;101604.28;7363188;19;20363;-65
2022/07/26 06:10:41;;;;;;;0.00;0.00;;;;;;;16.50;61.19;101609.47;7361170;19;20018;-65
2022/07/26 06:13:07;;;;;;;0.00;0.00;;;;;;;16.33;60.79;101573.97;7361764;19;20625;-65
2022/07/26 06:15:32;;;;;;;0.00;0.00;;;;;;;16.54;60.70;101605.81;7360126;19;20121;-64
2022/07/26 06:17:58;;;;;;;0.00;0.00;;;;;;;16.57;60.27;101611.88;7360637;19;20819;-65
2022/07/26 06:20:23;;;;;;;0.00;0.00;;;;;;;16.59;61.29;101611.81;7358400;19;20021;-64
2022/07/26 06:22:50;;;;;;;0.10;0.10;;;;;;;16.51;61.36;101596.22;7359395;19;20023;-64
2022/07/26 06:25:16;;;;;;;0.00;0.00;;;;;;;16.65;61.01;101613.38;7359387;19;20015;-65
2022/07/26 06:27:41;;;;;;;0.00;0.00;;;;;;;16.68;61.06;101623.84;7356494;19;20010;-64
2022/07/26 06:30:08;;;;;;;0.10;0.10;;;;;;;16.65;61.29;101618.66;7358786;19;20021;-64
2022/07/26 06:32:33;;;;;;;0.10;0.10;;;;;;;16.75;60.60;101628.88;7362813;19;20017;-66
2022/07/26 06:34:59;;;;;;;0.00;0.00;;;;;;;16.79;60.76;101633.13;7360572;19;20006;-64
2022/07/26 06:37:25;;;;;;;0.10;0.10;;;;;;;16.84;60.85;101635.63;7360165;19;20011;-65
2022/07/26 06:39:51;;;;;;;0.00;0.00;;;;;;;16.89;60.79;101643.38;7361117;19;20017;-65
2022/07/26 06:42:16;;;;;;;0.00;0.00;;;;;;;16.90;60.18;101639.81;7359956;19;20010;-64
2022/07/26 06:44:42;;;;;;;0.00;0.00;;;;;;;16.91;60.53;101637.13;7362169;19;20437;-65
2022/07/26 06:47:07;;;;;;;0.00;0.00;;;;;;;16.88;60.59;101628.44;7359118;19;20034;-65
2022/07/26 06:49:33;;;;;;;0.00;0.00;;;;;;;16.93;60.80;101640.59;7361933;19;20010;-64
2022/07/26 06:51:58;;;;;;;0.00;0.00;;;;;;;17.01;60.63;101651.72;7357171;19;20846;-65
2022/07/26 06:54:23;;;;;;;0.00;0.00;;;;;;;17.04;60.58;101650.78;7362246;19;20018;-64
2022/07/26 06:56:49;;;;;;;0.10;0.10;;;;;;;17.06;60.21;101660.34;7359918;19;20688;-65
2022/07/26 06:59:14;;;;;;;0.10;0.10;;;;;;;17.09;60.70;101662.03;7369495;19;20010;-66
2022/07/26 07:01:40;;;;;;;0.00;0.00;;;;;;;17.12;60.23;101661.91;7360811;19;20015;-65
2022/07/26 07:04:05;;;;;;;0.00;0.00;;;;;;;17.16;59.62;101667.94;7366196;19;20035;-64
2022/07/26 07:06:30;;;;;;;0.10;0.10;;;;;;;17.02;59.68;101644.66;7366539;19;20017;-64
2022/07/26 07:08:56;;;;;;;0.00;0.00;;;;;;;17.24;59.82;101664.13;7370065;19;20106;-65
2022/07/26 07:11:21;;;;;;;0.05;0.05;;;;;;;17.30;59.40;101665.69;7365781;19;20011;-65
2022/07/26 07:13:47;;;;;;;0.03;0.03;;;;;;;17.35;58.56;101675.19;7367350;19;20090;-66
2022/07/26 07:16:12;;;;;;;0.00;0.00;;;;;;;17.41;59.44;101675.88;7367571;19;20034;-64
2022/07/26 07:18:37;;;;;;;0.05;0.05;;;;;;;17.44;59.33;101673.13;7365863;19;20613;-65
2022/07/26 07:21:03;;;;;;;0.00;0.00;;;;;;;17.52;58.63;101681.63;7350430;19;20038;-65
2022/07/26 07:23:28;;;;;;;0.10;0.10;;;;;;;17.58;58.94;101679.63;7363565;19;20046;-64
2022/07/26 07:25:54;;;;;;;0.00;0.00;;;;;;;17.63;58.28;101684.75;7342955;19;20006;-64
2022/07/26 07:28:19;;;;;;;0.10;0.10;;;;;;;17.71;58.17;101689.75;7359249;19;20015;-65
2022/07/26 07:30:46;;;;;;;0.10;0.10;;;;;;;17.74;58.65;101687.91;7356269;19;20073;-65
2022/07/26 07:33:12;;;;;;;0.10;0.10;;;;;;;17.82;57.95;101690.25;7358948;19;20340;-65
2022/07/26 07:35:39;;;;;;;0.10;0.10;;;;;;;17.88;58.42;101693.50;7358630;19;21333;-64
2022/07/26 07:38:04;;;;;;;0.00;0.00;;;;;;;17.87;57.94;101675.94;7359154;19;20486;-65
2022/07/26 07:40:30;;;;;;;0.05;0.05;;;;;;;17.93;57.66;101671.34;7354543;19;20010;-65
2022/07/26 07:42:55;;;;;;;0.10;0.10;;;;;;;18.08;58.16;101686.63;7356722;19;20739;-65
2022/07/26 07:45:21;;;;;;;0.00;0.00;;;;;;;18.16;58.30;101689.84;7356345;19;20018;-64
2022/07/26 07:47:46;;;;;;;0.10;0.10;;;;;;;18.24;58.24;101698.31;7356649;19;20022;-65
2022/07/26 07:50:12;;;;;;;0.00;0.00;;;;;;;18.29;57.69;101696.34;7366977;19;20688;-65
2022/07/26 07:52:37;;;;;;;0.10;0.10;;;;;;;18.34;57.59;101689.09;7364860;19;20744;-65
2022/07/26 07:55:03;;;;;;;0.10;0.10;;;;;;;18.49;57.31;101689.44;7363138;19;21749;-65
2022/07/26 07:57:29;;;;;;;0.00;0.00;;;;;;;18.58;56.61;101697.84;7365146;19;20010;-65
2022/07/26 07:59:54;;;;;;;0.10;0.10;;;;;;;18.58;56.40;101675.84;7362806;19;21412;-65
2022/07/26 08:02:20;;;;;;;0.00;0.00;;;;;;;18.71;55.95;101692.97;7361267;19;20014;-65
2022/07/26 08:04:45;;;;;;;0.00;0.00;;;;;;;18.83;56.21;101703.06;7360881;19;20035;-65
2022/07/26 08:07:10;;;;;;;0.00;0.00;;;;;;;18.93;56.48;101688.50;7347564;19;20021;-66
2022/07/26 08:09:36;;;;;;;0.00;0.00;;;;;;;19.02;55.82;101689.91;7352033;19;20021;-64
2022/07/26 08:12:02;;;;;;;0.00;0.00;;;;;;;19.05;56.02;101680.97;7362690;19;20014;-64
2022/07/26 08:14:27;;;;;;;0.00;0.00;;;;;;;19.24;55.76;101692.50;7363542;19;20014;-65
2022/07/26 08:16:53;;;;;;;0.10;0.10;;;;;;;19.36;54.30;101692.00;7364574;19;20021;-64
2022/07/26 08:19:18;;;;;;;0.00;0.00;;;;;;;19.46;54.93;101689.78;7355330;19;20014;-65
2022/07/26 08:21:44;;;;;;;0.03;0.03;;;;;;;19.59;53.87;101698.06;7352611;19;20018;-65
2022/07/26 08:24:10;;;;;;;0.08;0.08;;;;;;;19.69;54.06;101705.56;7346501;19;20634;-65
2022/07/26 08:26:36;;;;;;;0.10;0.10;;;;;;;19.79;54.01;101706.00;7347039;19;20030;-65
2022/07/26 08:29:02;;;;;;;0.00;0.00;;;;;;;19.86;53.43;101702.13;7364975;19;20010;-66
2022/07/26 08:31:28;;;;;;;0.00;0.00;;;;;;;19.98;52.89;101711.34;7366099;19;20086;-65
2022/07/26 08:33:53;;;;;;;0.10;0.10;;;;;;;20.02;51.74;101712.03;7364714;19;20010;-65
2022/07/26 08:36:19;;;;;;;0.08;0.08;;;;;;;20.14;51.52;101711.50;7365650;19;20029;-66
2022/07/26 08:38:44;;;;;;;0.05;0.05;;;;;;;20.11;52.71;101693.06;7364032;19;20478;-66
2022/07/26 08:41:10;;;;;;;0.00;0.00;;;;;;;20.30;50.64;101716.94;7364533;19;20047;-66
2022/07/26 08:43:35;;;;;;;0.10;0.10;;;;;;;20.28;52.27;101698.44;7362842;19;20468;-65
2022/07/26 08:46:02;;;;;;;0.00;0.00;;;;;;;20.47;51.78;101720.50;7365554;19;20015;-65
2022/07/26 08:48:28;;;;;;;0.10;0.10;;;;;;;20.57;50.59;101704.16;7362833;19;20038;-65
2022/07/26 08:50:57;;;;;;;0.10;0.10;;;;;;;20.69;50.50;101704.44;7363391;19;20356;-65
2022/07/26 08:53:22;;;;;;;0.00;0.00;;;;;;;20.73;50.53;101705.13;7361563;19;20093;-65
2022/07/26 08:55:48;;;;;;;0.00;0.00;;;;;;;20.80;49.47;101701.25;7359893;19;20078;-65
2022/07/26 08:58:13;;;;;;;0.10;0.10;;;;;;;20.86;49.44;101710.69;7363216;19;20035;-65
2022/07/26 09:00:42;;;;;;;0.00;0.00;;;;;;;20.90;50.41;101697.19;7363756;19;20454;-65
2022/07/26 09:03:23;;;;;;;0.10;0.10;;;;;;;21.02;51.03;101694.84;7360053;19;20830;-65
2022/07/26 09:05:48;;;;;;;0.00;0.00;;;;;;;21.02;49.42;101703.69;7363099;19;20052;-65
2022/07/26 09:08:25;;;;;;;0.10;0.10;;;;;;;21.13;49.59;101703.13;7357258;19;20566;-65
2022/07/26 09:10:50;;;;;;;0.10;0.10;;;;;;;21.12;47.25;101698.75;7362545;19;20522;-65
2022/07/26 09:13:16;;;;;;;0.00;0.00;;;;;;;21.09;48.45;101696.28;7362713;19;20019;-65
2022/07/26 09:15:41;;;;;;;0.10;0.10;;;;;;;21.13;47.95;101695.16;7364068;19;20006;-65
2022/07/26 09:18:25;;;;;;;0.10;0.10;;;;;;;21.18;49.36;101701.09;7364538;19;20006;-65
2022/07/26 09:20:50;;;;;;;0.10;0.10;;;;;;;21.11;48.47;101699.72;7364019;19;20023;-65
2022/07/26 09:23:16;;;;;;;0.00;0.00;;;;;;;21.14;47.12;101694.25;7365858;19;20056;-65
2022/07/26 09:25:44;;;;;;;0.10;0.10;;;;;;;21.17;47.26;101704.69;7361765;19;20011;-64
2022/07/26 09:28:28;;;;;;;0.00;0.00;;;;;;;21.20;49.21;101701.91;7361122;19;20014;-65
2022/07/26 09:30:58;;;;;;;0.10;0.10;;;;;;;21.16;46.66;101709.16;7361280;19;20014;-64
2022/07/26 09:33:24;;;;;;;0.10;0.10;;;;;;;21.15;45.65;101701.28;7363446;19;20038;-65
2022/07/26 09:36:02;;;;;;;0.03;0.03;;;;;;;21.17;48.46;101708.22;7360700;19;20010;-65
2022/07/26 09:38:45;;;;;;;0.00;0.00;;;;;;;21.15;47.88;101707.44;7364666;19;20017;-65
2022/07/26 09:41:19;;;;;;;0.10;0.10;;;;;;;21.12;46.57;101706.72;7364840;19;20023;-65
2022/07/26 09:43:44;;;;;;;0.03;0.03;;;;;;;21.06;45.95;101709.72;7358699;19;20070;-65
2022/07/26 09:46:10;;;;;;;0.10;0.10;;;;;;;20.95;46.58;101689.88;7366914;19;20086;-66
2022/07/26 09:48:38;;;;;;;0.00;0.00;;;;;;;21.03;47.15;101709.84;7363247;19;20474;-65
2022/07/26 09:51:07;;;;;;;0.10;0.10;;;;;;;21.04;44.97;101714.25;7363602;19;20014;-65
2022/07/26 09:53:40;;;;;;;0.00;0.00;;;;;;;21.12;46.19;101712.03;7359346;19;20010;-65
2022/07/26 09:56:06;;;;;;;0.10;0.10;;;;;;;21.13;44.90;101709.31;7361951;19;20015;-65
2022/07/26 09:58:32;;;;;;;0.10;0.10;;;;;;;21.21;45.68;101714.25;7361006;19;20022;-65
2022/07/26 10:00:58;;;;;;;0.10;0.10;;;;;;;21.29;45.10;101709.41;7361922;19;20090;-65
2022/07/26 10:03:23;;;;;;;0.10;0.10;;;;;;;21.40;45.43;101717.72;7361497;19;20019;-65
2022/07/26 10:05:48;;;;;;;0.00;0.00;;;;;;;21.52;45.06;101720.66;7359350;19;20015;-65
2022/07/26 10:08:16;;;;;;;0.10;0.10;;;;;;;21.67;42.91;101719.84;7362093;19;20014;-65
2022/07/26 10:10:49;;;;;;;0.00;0.00;;;;;;;21.85;44.37;101729.53;7361357;19;20520;-65
2022/07/26 10:13:14;;;;;;;0.00;0.00;;;;;;;21.92;42.42;101725.56;7363894;19;20014;-65
2022/07/26 10:15:47;;;;;;;0.10;0.10;;;;;;;22.09;43.85;101731.78;7361304;19;20732;-65
2022/07/26 10:18:36;;;;;;;0.10;0.10;;;;;;;22.26;45.56;101729.09;7359976;19;20097;-65
2022/07/26 10:21:16;;;;;;;0.10;0.10;;;;;;;22.39;44.65;101727.44;7350484;19;20026;-66
2022/07/26 10:23:43;;;;;;;0.10;0.10;;;;;;;22.59;43.34;101717.50;7362299;19;20017;-66
2022/07/26 10:26:30;;;;;;;0.10;0.10;;;;;;;22.85;42.52;101711.50;7361807;19;20029;-65
2022/07/26 10:29:14;;;;;;;;;;;;;;;23.23;47.64;101721.78;7360459;19;20018;-65
2022/07/26 10:31:40;;;;;;;0.10;0.10;;;;;;;23.39;42.50;101719.03;7361312;19;19925;-65
2022/07/26 10:34:06;;;;;;;0.10;0.10;;;;;;;23.61;40.62;101713.25;7361799;19;20015;-65
2022/07/26 10:36:37;;;;;;;0.10;0.10;;;;;;;23.88;41.85;101713.41;7364926;19;20017;-65
2022/07/26 10:39:24;;;;;;;0.10;0.10;;;;;;;24.14;42.93;101717.94;7359566;19;20049;-65
2022/07/26 10:41:58;;;;;;;0.10;0.10;;;;;;;24.19;41.07;101707.84;7360521;19;20747;-65
2022/07/26 10:44:29;;;;;;;0.10;0.10;;;;;;;24.21;40.54;101708.59;7362172;19;20014;-65
2022/07/26 10:47:03;;;;;;;0.10;0.10;;;;;;;24.35;39.48;101718.38;7362856;19;20014;-65
2022/07/26 10:49:49;;;;;;;0.10;0.10;;;;;;;24.49;42.34;101720.22;7360129;19;20010;-65
2022/07/26 10:52:27;;;;;;;0.10;0.10;;;;;;;24.59;41.68;101722.16;7358772;19;20038;-66
2022/07/26 10:54:56;;;;;;;0.00;0.00;;;;;;;24.66;39.44;101713.75;7362741;19;20018;-65
2022/07/26 10:57:42;;;;;;;0.10;0.10;;;;;;;24.81;42.26;101720.75;7360984;19;20370;-66
2022/07/26 11:00:11;;;;;;;0.10;0.10;;;;;;;24.93;38.82;101719.06;7360458;19;20762;-65
2022/07/26 11:02:37;;;;;;;0.10;0.10;;;;;;;25.03;39.95;101715.66;7360223;19;20152;-65
2022/07/26 11:05:03;;;;;;;0.10;0.10;;;;;;;25.24;38.69;101723.22;7359895;19;20052;-65
2022/07/26 11:07:29;;;;;;;0.10;0.10;;;;;;;25.47;37.04;101725.19;7360269;19;20364;-65
2022/07/26 11:09:59;;;;;;;0.10;0.10;;;;;;;25.62;35.55;101718.78;7361491;19;20888;-65
2022/07/26 11:12:25;;;;;;;0.10;0.10;;;;;;;25.80;37.32;101723.81;7360588;19;20034;-65
2022/07/26 11:14:52;;;;;;;0.08;0.08;;;;;;;25.93;34.96;101727.34;7364125;19;20018;-65
2022/07/26 11:17:24;;;;;;;0.10;0.10;;;;;;;26.10;38.28;101713.63;7356036;19;20025;-65
2022/07/26 11:19:50;;;;;;;0.10;0.10;;;;;;;26.18;37.31;101720.22;7361169;19;20029;-65
2022/07/26 11:22:16;;;;;;;0.10;0.10;;;;;;;26.31;37.43;101721.06;7361971;19;20027;-65
2022/07/26 11:24:41;;;;;;;0.10;0.10;;;;;;;26.56;35.53;101726.38;7359168;19;20500;-65
2022/07/26 11:27:07;;;;;;;0.20;0.20;;;;;;;26.91;35.90;101723.69;7360959;19;20027;-65